Time;durP1;ratioP1;P1;durP2;ratioP2;P2;SDS_P1;SDS_P2;PMS_P1;PMS_P2;Temp;Humidity;BMP_temperature;BMP_pressure;BME280_temperature;BME280_humidity;BME280_pressure;Samples;Min_cycle;Max_cycle;Signal;HPM_P1;HPM_P2
2023/11/05 00:00:10;;;;;;;16.83;11.10;;;;;21.70;96284.00;;;;2057312;28;20203;-57
2023/11/05 00:01:11;;;;;;;13.60;9.70;;;;;21.70;96278.00;;;;2058343;28;20211;-55
2023/11/05 00:02:11;;;;;;;13.27;9.90;;;;;21.70;96288.00;;;;2059685;28;20213;-57
2023/11/05 00:03:11;;;;;;;14.80;10.20;;;;;21.70;96265.00;;;;2049835;28;22891;-57
2023/11/05 00:04:12;;;;;;;15.10;10.00;;;;;21.70;96291.00;;;;2060718;28;20344;-57
2023/11/05 00:05:14;;;;;;;18.73;10.60;;;;;21.70;96288.00;;;;2060834;28;20330;-57
2023/11/05 00:06:14;;;;;;;12.18;9.68;;;;;21.70;96281.00;;;;2059579;28;20745;-57
2023/11/05 00:07:15;;;;;;;14.03;10.47;;;;;21.70;96284.00;;;;2063705;28;20231;-56
2023/11/05 00:08:15;;;;;;;12.03;9.27;;;;;21.70;96280.00;;;;2052419;28;20231;-56
2023/11/05 00:09:16;;;;;;;12.53;9.47;;;;;21.70;96283.00;;;;2067858;28;20218;-57
2023/11/05 00:10:16;;;;;;;12.87;9.37;;;;;21.70;96282.00;;;;2061556;28;20310;-54
2023/11/05 00:11:16;;;;;;;12.60;9.63;;;;;21.70;96287.00;;;;2062531;28;20223;-56
2023/11/05 00:12:17;;;;;;;13.37;9.90;;;;;21.60;96286.00;;;;2064885;28;20289;-56
2023/11/05 00:13:17;;;;;;;12.40;8.47;;;;;21.60;96285.00;;;;2059378;28;20266;-57
2023/11/05 00:14:17;;;;;;;11.47;8.60;;;;;21.60;96185.00;;;;2061523;28;20251;-57
2023/11/05 00:15:18;;;;;;;12.10;9.10;;;;;21.60;96286.00;;;;2068356;28;20644;-55
2023/11/05 00:16:18;;;;;;;12.23;9.23;;;;;21.60;96279.00;;;;2063118;28;20226;-55
2023/11/05 00:17:18;;;;;;;11.63;8.83;;;;;21.60;96280.00;;;;2056320;28;20219;-57
2023/11/05 00:18:19;;;;;;;12.23;9.10;;;;;21.60;96281.00;;;;2052186;28;20672;-56
2023/11/05 00:19:19;;;;;;;12.40;8.03;;;;;21.60;96275.00;;;;2061990;28;20249;-57
2023/11/05 00:20:19;;;;;;;10.90;8.53;;;;;21.60;96281.00;;;;2061651;28;20242;-57
2023/11/05 00:21:20;;;;;;;10.43;8.33;;;;;21.60;96267.00;;;;2061515;28;20215;-54
2023/11/05 00:22:20;;;;;;;13.13;9.37;;;;;21.60;96274.00;;;;2054985;28;20698;-56
2023/11/05 00:23:20;;;;;;;10.10;7.87;;;;;21.60;96263.00;;;;2058539;28;20230;-55
2023/11/05 00:24:21;;;;;;;10.03;7.60;;;;;21.60;96273.00;;;;2057543;28;20223;-56
2023/11/05 00:25:21;;;;;;;11.93;7.90;;;;;21.60;96208.00;;;;2058665;28;20314;-56
2023/11/05 00:26:21;;;;;;;12.40;8.00;;;;;21.60;96266.00;;;;2054855;28;20222;-57
2023/11/05 00:27:22;;;;;;;11.00;7.67;;;;;21.60;96272.00;;;;2050878;28;20221;-57
2023/11/05 00:28:22;;;;;;;9.83;7.13;;;;;21.60;96261.00;;;;2065360;28;20222;-57
2023/11/05 00:29:22;;;;;;;9.80;7.20;;;;;21.60;96259.00;;;;2061156;28;20238;-55
2023/11/05 00:30:23;;;;;;;10.13;7.33;;;;;21.60;96258.00;;;;2061802;28;20230;-58
2023/11/05 00:31:24;;;;;;;9.97;7.50;;;;;21.60;96254.00;;;;2059998;28;20273;-57
2023/11/05 00:32:24;;;;;;;12.40;8.40;;;;;21.60;96258.00;;;;2052158;28;20308;-56
2023/11/05 00:33:25;;;;;;;11.43;7.40;;;;;21.60;96261.00;;;;2061191;28;20489;-60
2023/11/05 00:34:25;;;;;;;10.97;7.47;;;;;21.60;96264.00;;;;2064803;28;20338;-56
2023/11/05 00:35:25;;;;;;;9.30;6.77;;;;;21.60;96266.00;;;;2065355;28;20725;-57
2023/11/05 00:36:25;;;;;;;9.50;6.90;;;;;21.60;96256.00;;;;2056636;28;20909;-57
2023/11/05 00:37:26;;;;;;;10.73;7.33;;;;;21.60;96264.00;;;;2049994;28;20778;-59
2023/11/05 00:38:26;;;;;;;9.87;7.00;;;;;21.60;96260.00;;;;2061545;28;20729;-59
2023/11/05 00:39:26;;;;;;;8.20;6.13;;;;;21.60;96261.00;;;;2063508;28;20690;-57
2023/11/05 00:40:27;;;;;;;8.87;6.80;;;;;21.60;96259.00;;;;2064665;28;20766;-56
2023/11/05 00:41:27;;;;;;;9.73;6.43;;;;;21.60;96269.00;;;;2060284;28;20699;-56
2023/11/05 00:42:28;;;;;;;9.70;7.60;;;;;21.50;96258.00;;;;2051071;28;20698;-57
2023/11/05 00:43:29;;;;;;;10.00;6.67;;;;;21.60;96255.00;;;;2061659;28;20214;-57
2023/11/05 00:44:30;;;;;;;10.40;6.93;;;;;21.60;96250.00;;;;2058028;28;20657;-58
2023/11/05 00:45:30;;;;;;;8.30;6.30;;;;;21.60;96254.00;;;;2059301;28;20211;-57
2023/11/05 00:46:31;;;;;;;8.20;6.07;;;;;21.60;96258.00;;;;2058977;28;20207;-56
2023/11/05 00:47:31;;;;;;;8.60;6.20;;;;;21.60;96251.00;;;;2052415;28;20210;-57
2023/11/05 00:48:31;;;;;;;9.20;6.73;;;;;21.60;96286.00;;;;2066655;28;20584;-55
2023/11/05 00:49:32;;;;;;;9.53;6.03;;;;;21.60;96266.00;;;;2060977;28;20583;-56
2023/11/05 00:50:32;;;;;;;8.93;6.20;;;;;21.60;96259.00;;;;2053475;28;20284;-55
2023/11/05 00:51:33;;;;;;;9.70;6.60;;;;;21.60;96257.00;;;;2057123;28;20221;-58
2023/11/05 00:52:34;;;;;;;7.70;5.73;;;;;21.60;96254.00;;;;2051175;28;20225;-57
2023/11/05 00:53:34;;;;;;;7.78;6.13;;;;;21.60;96248.00;;;;2059887;28;20237;-57
2023/11/05 00:54:34;;;;;;;8.33;5.53;;;;;21.50;96250.00;;;;2060960;28;20245;-56
2023/11/05 00:55:35;;;;;;;7.80;5.33;;;;;21.60;96253.00;;;;2059141;28;20687;-57
2023/11/05 00:56:35;;;;;;;8.97;5.77;;;;;21.50;96246.00;;;;2061942;28;20951;-58
2023/11/05 00:57:36;;;;;;;8.00;6.40;;;;;21.50;96251.00;;;;2050683;28;20221;-57
2023/11/05 00:58:36;;;;;;;7.97;5.53;;;;;21.50;96246.00;;;;2059721;28;20254;-55
2023/11/05 00:59:36;;;;;;;8.73;5.53;;;;;21.50;96243.00;;;;2054525;28;20251;-56
2023/11/05 01:00:36;;;;;;;6.47;5.20;;;;;21.50;96232.00;;;;2057955;28;20210;-56
2023/11/05 01:01:37;;;;;;;7.13;5.40;;;;;21.50;96233.00;;;;2054268;28;20227;-58
2023/11/05 01:02:37;;;;;;;7.43;5.07;;;;;21.50;96240.00;;;;2038464;28;20236;-57
2023/11/05 01:03:38;;;;;;;7.53;5.30;;;;;21.50;96232.00;;;;2068587;28;20218;-57
2023/11/05 01:04:38;;;;;;;8.30;5.77;;;;;21.50;96233.00;;;;2068683;28;20222;-57
2023/11/05 01:05:38;;;;;;;6.87;4.53;;;;;21.50;96235.00;;;;2064824;28;20301;-56
2023/11/05 01:06:39;;;;;;;8.23;5.77;;;;;21.50;96238.00;;;;2061536;28;20270;-55
2023/11/05 01:07:39;;;;;;;8.70;4.97;;;;;21.50;96227.00;;;;2049645;28;20236;-56
2023/11/05 01:08:39;;;;;;;6.50;4.70;;;;;21.50;96220.00;;;;2054688;28;20298;-57
2023/11/05 01:09:40;;;;;;;6.20;4.40;;;;;21.50;96222.00;;;;2059406;28;20229;-56
2023/11/05 01:10:40;;;;;;;8.00;5.27;;;;;21.50;96218.00;;;;2060430;28;20210;-57
2023/11/05 01:11:41;;;;;;;6.60;4.93;;;;;21.50;96227.00;;;;2060806;28;20302;-55
2023/11/05 01:12:42;;;;;;;7.40;4.50;;;;;21.50;96230.00;;;;2048863;28;20755;-56
2023/11/05 01:13:42;;;;;;;5.63;4.53;;;;;21.50;96223.00;;;;2054850;28;20572;-56
2023/11/05 01:14:42;;;;;;;8.10;4.80;;;;;21.50;96222.00;;;;2057971;28;20874;-57
2023/11/05 01:15:43;;;;;;;6.23;4.10;;;;;21.50;96228.00;;;;2062780;28;20656;-57
2023/11/05 01:16:43;;;;;;;5.30;4.20;;;;;21.50;96217.00;;;;2059430;28;20691;-56
2023/11/05 01:17:43;;;;;;;8.40;4.90;;;;;21.50;96227.00;;;;2055913;28;20324;-56
2023/11/05 01:18:44;;;;;;;6.80;4.60;;;;;21.50;96227.00;;;;2056024;28;20219;-57
2023/11/05 01:19:44;;;;;;;6.33;4.50;;;;;21.50;96215.00;;;;2059834;28;20266;-56
2023/11/05 01:20:44;;;;;;;8.90;4.90;;;;;21.40;96228.00;;;;2055896;28;20286;-58
2023/11/05 01:21:45;;;;;;;7.27;4.20;;;;;21.50;96218.00;;;;2058536;28;20222;-56
2023/11/05 01:22:46;;;;;;;6.78;4.32;;;;;21.40;96230.00;;;;2044428;28;20238;-57
2023/11/05 01:23:46;;;;;;;5.83;3.70;;;;;21.50;96220.00;;;;2053229;28;20223;-56
2023/11/05 01:24:46;;;;;;;6.77;4.20;;;;;21.50;96222.00;;;;2059253;28;20223;-58
2023/11/05 01:25:47;;;;;;;6.37;4.57;;;;;21.50;96235.00;;;;2061348;28;20272;-58
2023/11/05 01:26:47;;;;;;;6.80;4.40;;;;;21.40;96232.00;;;;2059139;28;20305;-58
2023/11/05 01:27:47;;;;;;;6.60;4.23;;;;;20.70;96227.00;;;;2052702;28;20223;-58
2023/11/05 01:28:48;;;;;;;6.10;3.87;;;;;21.50;96235.00;;;;2058277;28;20226;-54
2023/11/05 01:29:49;;;;;;;5.68;4.40;;;;;21.40;96221.00;;;;2060241;28;20242;-58
2023/11/05 01:30:50;;;;;;;5.50;3.67;;;;;21.40;96217.00;;;;2061154;28;20219;-57
2023/11/05 01:31:50;;;;;;;7.70;3.87;;;;;21.40;96228.00;;;;2061969;28;20234;-55
2023/11/05 01:32:50;;;;;;;6.30;3.73;;;;;21.40;96229.00;;;;2052258;28;20305;-56
2023/11/05 01:33:51;;;;;;;5.83;3.80;;;;;21.40;96221.00;;;;2059560;28;20289;-58
2023/11/05 01:34:51;;;;;;;6.23;3.70;;;;;21.40;96216.00;;;;2053318;28;20239;-58
2023/11/05 01:35:51;;;;;;;6.67;4.27;;;;;21.40;96221.00;;;;2060669;28;20227;-57
2023/11/05 01:36:51;;;;;;;5.60;3.70;;;;;21.40;96221.00;;;;2059390;28;20336;-58
2023/11/05 01:37:52;;;;;;;5.60;3.87;;;;;21.40;96114.00;;;;2044176;28;20282;-55
2023/11/05 01:38:52;;;;;;;6.90;3.90;;;;;21.40;96212.00;;;;2058764;28;20639;-55
2023/11/05 01:39:52;;;;;;;6.27;3.80;;;;;21.40;96206.00;;;;2053899;28;20235;-56
2023/11/05 01:40:53;;;;;;;4.37;3.17;;;;;21.40;96210.00;;;;2053946;28;20219;-57
2023/11/05 01:41:53;;;;;;;7.10;3.63;;;;;21.40;96206.00;;;;2052957;28;20219;-57
2023/11/05 01:42:56;;;;;;;5.00;3.43;;;;;21.40;96210.00;;;;2051275;28;20311;-57
2023/11/05 01:43:57;;;;;;;4.88;3.33;;;;;21.40;96210.00;;;;2065379;28;20222;-55
2023/11/05 01:44:57;;;;;;;5.63;3.00;;;;;21.40;96204.00;;;;2060976;28;20326;-56
2023/11/05 01:45:58;;;;;;;3.33;2.77;;;;;21.40;96199.00;;;;2062921;28;20210;-54
2023/11/05 01:46:58;;;;;;;5.93;3.83;;;;;21.40;96199.00;;;;2059497;28;20218;-55
2023/11/05 01:47:59;;;;;;;4.87;3.43;;;;;21.40;96193.00;;;;2043148;28;20215;-55
2023/11/05 01:48:59;;;;;;;5.83;3.23;;;;;21.40;96196.00;;;;2053461;28;20462;-57
2023/11/05 01:50:00;;;;;;;5.13;3.33;;;;;21.40;96182.00;;;;2068136;28;20229;-55
2023/11/05 01:51:04;;;;;;;6.77;3.27;;;;;21.40;96185.00;;;;2067810;28;20226;-57
2023/11/05 01:52:04;;;;;;;5.22;3.25;;;;;21.40;96178.00;;;;2057978;28;20219;-58
2023/11/05 01:53:04;;;;;;;5.13;3.37;;;;;21.40;96180.00;;;;2045956;28;20215;-56
2023/11/05 01:54:05;;;;;;;5.47;2.83;;;;;21.40;96176.00;;;;2056969;28;20259;-58
2023/11/05 01:55:06;;;;;;;4.77;2.93;;;;;21.40;96178.00;;;;2058897;28;20238;-56
2023/11/05 01:56:07;;;;;;;4.20;2.80;;;;;21.40;96171.00;;;;2059065;28;20230;-58
2023/11/05 01:57:07;;;;;;;4.13;2.83;;;;;21.40;96182.00;;;;2048166;28;20451;-58
2023/11/05 01:58:08;;;;;;;5.13;3.10;;;;;21.40;96161.00;;;;2041146;28;20258;-55
2023/11/05 01:59:08;;;;;;;4.20;3.10;;;;;21.40;96166.00;;;;2052430;28;20223;-58
2023/11/05 02:00:11;;;;;;;5.20;3.30;;;;;21.40;96170.00;;;;2058592;28;20231;-57
2023/11/05 02:01:11;;;;;;;5.15;3.10;;;;;21.40;96160.00;;;;2062282;28;20218;-57
2023/11/05 02:02:12;;;;;;;4.03;2.60;;;;;21.40;96157.00;;;;2065993;28;20210;-55
2023/11/05 02:03:13;;;;;;;5.37;3.03;;;;;21.40;96157.00;;;;2056448;28;20686;-55
2023/11/05 02:04:13;;;;;;;4.90;2.80;;;;;21.40;96161.00;;;;2060926;28;20724;-58
2023/11/05 02:05:14;;;;;;;3.60;2.20;;;;;21.40;96152.00;;;;2062927;28;20222;-54
2023/11/05 02:06:14;;;;;;;4.40;2.40;;;;;21.40;96158.00;;;;2058574;28;20295;-56
2023/11/05 02:07:14;;;;;;;4.40;2.80;;;;;21.40;96150.00;;;;2051391;28;20211;-56
2023/11/05 02:08:15;;;;;;;5.10;2.60;;;;;21.40;96154.00;;;;2043137;28;20271;-58
2023/11/05 02:09:15;;;;;;;4.07;3.00;;;;;21.40;96144.00;;;;2062123;28;20203;-57
2023/11/05 02:10:15;;;;;;;3.60;2.30;;;;;21.40;96144.00;;;;2066433;28;20214;-57
2023/11/05 02:11:16;;;;;;;4.70;3.23;;;;;21.40;96141.00;;;;2055406;28;20583;-58
2023/11/05 02:12:16;;;;;;;3.70;2.67;;;;;21.40;96138.00;;;;2061614;28;20585;-55
2023/11/05 02:13:16;;;;;;;5.90;2.90;;;;;21.40;96135.00;;;;2049022;28;20210;-57
2023/11/05 02:14:17;;;;;;;3.93;2.60;;;;;21.40;96140.00;;;;2052741;28;20212;-57
2023/11/05 02:15:17;;;;;;;4.53;2.60;;;;;21.30;96134.00;;;;2060240;28;20249;-57
2023/11/05 02:16:19;;;;;;;4.27;2.60;;;;;21.30;96158.00;;;;2060100;28;21030;-58
2023/11/05 02:17:19;;;;;;;5.80;2.92;;;;;21.30;96133.00;;;;2061785;28;20215;-62
2023/11/05 02:18:21;;;;;;;3.97;2.50;;;;;21.30;96137.00;;;;2055108;28;20240;-58
2023/11/05 02:19:21;;;;;;;3.42;2.60;;;;;21.30;96113.00;;;;2057409;28;20296;-58
2023/11/05 02:20:22;;;;;;;5.23;2.67;;;;;21.30;96127.00;;;;2068601;28;20311;-58
2023/11/05 02:21:37;;;;;;;3.20;2.10;;;;;21.40;96122.00;;;;2068005;28;20225;-58
2023/11/05 02:22:38;;;;;;;3.70;2.05;;;;;21.30;96123.00;;;;2041507;28;20229;-56
2023/11/05 02:23:38;;;;;;;3.93;2.50;;;;;21.40;96121.00;;;;2055623;28;20226;-57
2023/11/05 02:24:38;;;;;;;4.40;2.43;;;;;21.30;96121.00;;;;2059261;28;20233;-56
2023/11/05 02:25:39;;;;;;;3.97;2.50;;;;;21.30;96131.00;;;;2055452;28;20215;-55
2023/11/05 02:26:39;;;;;;;3.10;2.23;;;;;21.30;96112.00;;;;2056555;28;20475;-55
2023/11/05 02:27:39;;;;;;;4.27;2.63;;;;;21.30;96112.00;;;;2048321;28;20233;-56
2023/11/05 02:28:40;;;;;;;3.57;2.20;;;;;21.30;96110.00;;;;2063076;28;20221;-55
2023/11/05 02:29:40;;;;;;;4.87;2.43;;;;;21.30;96109.00;;;;2065153;28;20239;-57
2023/11/05 02:30:40;;;;;;;4.00;2.27;;;;;21.30;96109.00;;;;2053748;28;20218;-57
2023/11/05 02:31:41;;;;;;;3.10;1.97;;;;;21.30;96108.00;;;;2060921;28;20706;-58
2023/11/05 02:32:41;;;;;;;4.53;1.97;;;;;21.30;96109.00;;;;2046346;28;20704;-54
2023/11/05 02:33:42;;;;;;;5.80;2.30;;;;;21.30;96107.00;;;;2057242;28;20574;-56
2023/11/05 02:34:42;;;;;;;3.55;2.17;;;;;21.30;96098.00;;;;2067772;28;20312;-56
2023/11/05 02:35:43;;;;;;;3.50;1.97;;;;;21.30;96081.00;;;;2063116;28;20219;-54
2023/11/05 02:36:45;;;;;;;3.03;1.90;;;;;21.30;96109.00;;;;2055459;28;20306;-57
2023/11/05 02:37:45;;;;;;;4.00;2.25;;;;;21.30;96105.00;;;;2046703;28;20700;-57
2023/11/05 02:38:46;;;;;;;5.23;2.70;;;;;21.30;96110.00;;;;2053559;28;20248;-56
2023/11/05 02:39:46;;;;;;;3.87;2.00;;;;;21.30;96105.00;;;;2057258;28;20215;-56
2023/11/05 02:40:46;;;;;;;4.00;2.00;;;;;21.30;96089.00;;;;2066105;28;20340;-57
2023/11/05 02:41:47;;;;;;;3.23;1.90;;;;;21.30;96090.00;;;;2064023;28;20210;-58
2023/11/05 02:42:47;;;;;;;5.60;2.93;;;;;21.30;96095.00;;;;2043004;28;20294;-57
2023/11/05 02:43:47;;;;;;;2.90;1.90;;;;;21.30;96093.00;;;;2064939;28;20564;-58
2023/11/05 02:44:49;;;;;;;5.27;2.90;;;;;21.30;95996.00;;;;2062476;28;20627;-58
2023/11/05 02:45:50;;;;;;;3.92;2.20;;;;;21.30;96093.00;;;;2060070;28;20940;-58
2023/11/05 02:46:50;;;;;;;3.30;2.10;;;;;21.30;96102.00;;;;2061069;28;20237;-55
2023/11/05 02:47:50;;;;;;;3.00;1.60;;;;;21.30;96097.00;;;;2045439;28;20245;-56
2023/11/05 02:48:51;;;;;;;4.10;1.97;;;;;21.30;96082.00;;;;2065973;28;20234;-58
2023/11/05 02:49:51;;;;;;;3.13;1.73;;;;;21.30;96090.00;;;;2062336;28;20242;-58
2023/11/05 02:50:51;;;;;;;5.60;2.17;;;;;21.30;96078.00;;;;2057379;28;20288;-58
2023/11/05 02:51:52;;;;;;;2.73;1.57;;;;;21.30;96086.00;;;;2056534;28;20231;-58
2023/11/05 02:52:53;;;;;;;3.77;1.80;;;;;21.30;96085.00;;;;2045460;28;20231;-56
2023/11/05 02:53:53;;;;;;;3.10;1.70;;;;;21.30;96086.00;;;;2059362;28;20226;-55
2023/11/05 02:54:54;;;;;;;3.33;1.47;;;;;21.30;96085.00;;;;2054182;28;20235;-58
2023/11/05 02:55:54;;;;;;;3.33;2.00;;;;;21.30;96089.00;;;;2060107;28;20882;-58
2023/11/05 02:56:54;;;;;;;3.93;1.87;;;;;21.30;96082.00;;;;2052808;28;20262;-55
2023/11/05 02:57:55;;;;;;;2.17;1.47;;;;;21.30;96079.00;;;;2048529;28;20288;-55
2023/11/05 02:58:55;;;;;;;3.93;1.90;;;;;21.30;96086.00;;;;2054197;28;20220;-58
2023/11/05 02:59:55;;;;;;;2.30;1.60;;;;;21.30;96092.00;;;;2059816;28;20836;-58
2023/11/05 03:00:56;;;;;;;3.43;1.80;;;;;21.30;96085.00;;;;2062032;28;20645;-58
2023/11/05 03:01:56;;;;;;;5.20;1.80;;;;;21.30;96083.00;;;;2053393;28;20226;-59
2023/11/05 03:02:57;;;;;;;2.63;1.60;;;;;21.30;96082.00;;;;2057591;28;20256;-58
2023/11/05 03:03:57;;;;;;;2.40;2.00;;;;;21.30;96084.00;;;;2054761;28;20232;-55
2023/11/05 03:04:57;;;;;;;2.47;1.93;;;;;21.30;96080.00;;;;2058504;28;20234;-57
2023/11/05 03:05:58;;;;;;;3.10;1.60;;;;;21.20;96074.00;;;;2059750;28;20223;-58
2023/11/05 03:06:58;;;;;;;2.73;1.70;;;;;21.30;96079.00;;;;2064546;28;20277;-58
2023/11/05 03:07:58;;;;;;;3.20;1.90;;;;;21.20;96083.00;;;;2043746;28;20228;-58
2023/11/05 03:08:59;;;;;;;3.60;1.80;;;;;21.20;96073.00;;;;2049831;28;20258;-58
2023/11/05 03:09:59;;;;;;;3.30;1.53;;;;;21.20;96078.00;;;;2059601;28;20281;-55
2023/11/05 03:10:59;;;;;;;4.00;1.53;;;;;21.20;96079.00;;;;2054473;28;20219;-56
2023/11/05 03:12:00;;;;;;;3.43;1.40;;;;;21.20;96074.00;;;;2056418;28;20217;-58
2023/11/05 03:13:01;;;;;;;3.33;1.70;;;;;21.20;96084.00;;;;2055284;28;20275;-58
2023/11/05 03:14:01;;;;;;;4.37;1.70;;;;;21.20;96070.00;;;;2065744;28;20260;-57
2023/11/05 03:15:02;;;;;;;1.90;1.30;;;;;21.20;96071.00;;;;2057286;28;20238;-55
2023/11/05 03:16:03;;;;;;;3.60;1.57;;;;;21.20;96077.00;;;;2058825;28;20267;-57
2023/11/05 03:17:03;;;;;;;3.47;1.50;;;;;21.20;96071.00;;;;2071639;28;20237;-56
2023/11/05 03:18:04;;;;;;;4.13;1.60;;;;;21.20;96075.00;;;;2048634;28;20280;-54
2023/11/05 03:19:05;;;;;;;3.27;1.67;;;;;21.20;96078.00;;;;2060814;28;20245;-57
2023/11/05 03:20:09;;;;;;;2.80;1.60;;;;;21.20;95976.00;;;;2065211;28;20210;-58
2023/11/05 03:21:13;;;;;;;2.47;1.45;;;;;21.20;96072.00;;;;2055232;28;20466;-58
2023/11/05 03:22:14;;;;;;;4.60;1.58;;;;;21.20;96075.00;;;;2058609;28;20234;-54
2023/11/05 03:23:14;;;;;;;3.10;1.37;;;;;21.20;96068.00;;;;2050849;28;20210;-55
2023/11/05 03:24:15;;;;;;;2.03;1.10;;;;;21.20;96071.00;;;;2060919;28;20252;-56
2023/11/05 03:25:15;;;;;;;3.10;1.37;;;;;21.20;96067.00;;;;2059601;28;20215;-56
2023/11/05 03:26:15;;;;;;;3.30;1.40;;;;;21.20;96064.00;;;;2060528;28;20202;-56
2023/11/05 03:27:16;;;;;;;2.50;1.33;;;;;21.20;96073.00;;;;2057170;28;20276;-57
2023/11/05 03:28:16;;;;;;;2.97;1.47;;;;;21.20;96063.00;;;;2043575;28;20220;-55
2023/11/05 03:29:17;;;;;;;3.77;1.50;;;;;21.20;96065.00;;;;2066964;28;20198;-55
2023/11/05 03:30:17;;;;;;;2.15;1.10;;;;;21.20;96060.00;;;;2067860;28;20210;-58
2023/11/05 03:31:18;;;;;;;2.83;1.60;;;;;21.20;96057.00;;;;2065825;28;20671;-57
2023/11/05 03:32:18;;;;;;;3.03;1.50;;;;;21.20;96059.00;;;;2059189;28;20211;-55
2023/11/05 03:33:19;;;;;;;2.17;1.23;;;;;21.20;96061.00;;;;2045573;28;20224;-56
2023/11/05 03:34:19;;;;;;;2.17;0.93;;;;;21.20;96066.00;;;;2060704;28;20222;-56
2023/11/05 03:35:19;;;;;;;6.03;1.57;;;;;21.20;96058.00;;;;2060310;28;20302;-55
2023/11/05 03:36:20;;;;;;;2.30;1.13;;;;;21.20;96053.00;;;;2052778;28;20218;-57
2023/11/05 03:37:20;;;;;;;2.63;1.60;;;;;21.20;96052.00;;;;2057199;28;20254;-60
2023/11/05 03:38:20;;;;;;;4.73;1.60;;;;;21.20;96056.00;;;;2051374;28;20234;-56
2023/11/05 03:39:21;;;;;;;2.30;1.13;;;;;21.20;96059.00;;;;2052012;28;20212;-54
2023/11/05 03:40:21;;;;;;;2.50;1.60;;;;;21.20;96052.00;;;;2060643;28;20271;-55
2023/11/05 03:41:22;;;;;;;1.90;1.17;;;;;21.20;96054.00;;;;2066333;28;20210;-57
2023/11/05 03:42:22;;;;;;;3.20;1.83;;;;;21.20;96058.00;;;;2048674;28;20290;-59
2023/11/05 03:43:22;;;;;;;2.17;1.13;;;;;21.20;96051.00;;;;2058506;28;20252;-57
2023/11/05 03:44:23;;;;;;;2.30;1.20;;;;;21.20;96057.00;;;;2058487;28;20219;-54
2023/11/05 03:45:23;;;;;;;2.63;1.20;;;;;21.20;96068.00;;;;2060022;28;20226;-59
2023/11/05 03:46:24;;;;;;;3.20;1.23;;;;;21.20;96063.00;;;;2054839;28;20212;-58
2023/11/05 03:47:25;;;;;;;2.23;1.13;;;;;21.20;96067.00;;;;2051134;28;20317;-58
2023/11/05 03:48:25;;;;;;;3.80;1.17;;;;;21.20;96060.00;;;;2060059;28;20922;-57
2023/11/05 03:49:25;;;;;;;2.10;1.30;;;;;21.20;96068.00;;;;2059631;28;20211;-59
2023/11/05 03:50:26;;;;;;;4.43;1.60;;;;;21.20;96058.00;;;;2058823;28;20286;-58
2023/11/05 03:51:26;;;;;;;2.93;1.20;;;;;21.20;96066.00;;;;2057965;28;20651;-58
2023/11/05 03:52:26;;;;;;;2.47;1.37;;;;;21.20;96056.00;;;;2045924;28;20246;-57
2023/11/05 03:53:27;;;;;;;2.10;1.10;;;;;21.20;96059.00;;;;2061279;28;20221;-56
2023/11/05 03:54:27;;;;;;;2.70;1.47;;;;;21.20;96049.00;;;;2059787;28;20749;-58
2023/11/05 03:55:28;;;;;;;3.90;1.20;;;;;21.20;96048.00;;;;2061767;28;20252;-58
2023/11/05 03:56:28;;;;;;;1.93;0.90;;;;;21.20;96049.00;;;;2058477;28;20277;-58
2023/11/05 03:57:28;;;;;;;2.90;1.33;;;;;21.20;96053.00;;;;2047461;28;20588;-58
2023/11/05 03:58:29;;;;;;;2.27;1.20;;;;;21.20;96055.00;;;;2055584;28;20239;-58
2023/11/05 03:59:29;;;;;;;2.10;0.80;;;;;21.20;96060.00;;;;2060139;28;20211;-57
2023/11/05 04:00:29;;;;;;;2.70;1.17;;;;;21.10;96044.00;;;;2061078;28;20313;-58
2023/11/05 04:01:30;;;;;;;2.53;1.47;;;;;21.20;96057.00;;;;2058648;28;20223;-57
2023/11/05 04:02:30;;;;;;;3.50;1.40;;;;;21.10;96049.00;;;;2048848;28;20747;-59
2023/11/05 04:03:33;;;;;;;2.17;1.10;;;;;21.20;96062.00;;;;2055926;28;20242;-58
2023/11/05 04:04:34;;;;;;;3.92;1.20;;;;;21.10;96041.00;;;;2067610;28;20672;-58
2023/11/05 04:05:34;;;;;;;3.77;1.10;;;;;21.20;96057.00;;;;2064538;28;20258;-58
2023/11/05 04:06:35;;;;;;;1.50;0.90;;;;;21.10;96056.00;;;;2055525;28;20231;-58
2023/11/05 04:07:35;;;;;;;1.80;0.90;;;;;21.20;96041.00;;;;2047592;28;20579;-58
2023/11/05 04:08:35;;;;;;;1.90;0.93;;;;;21.10;96053.00;;;;2057080;28;20682;-58
2023/11/05 04:09:36;;;;;;;2.40;1.10;;;;;21.10;96053.00;;;;2058751;28;20793;-57
2023/11/05 04:10:36;;;;;;;1.87;1.07;;;;;21.10;95955.00;;;;2061677;28;20802;-57
2023/11/05 04:11:36;;;;;;;4.93;1.20;;;;;21.20;96059.00;;;;2067809;28;20653;-58
2023/11/05 04:12:36;;;;;;;2.97;1.10;;;;;21.10;96055.00;;;;2062168;28;20668;-57
2023/11/05 04:13:37;;;;;;;2.43;1.13;;;;;21.10;96067.00;;;;2058261;28;20298;-58
2023/11/05 04:14:37;;;;;;;2.50;1.27;;;;;21.10;96055.00;;;;2062696;28;20222;-58
2023/11/05 04:15:38;;;;;;;2.00;1.10;;;;;21.20;96059.00;;;;2059895;28;20218;-58
2023/11/05 04:16:38;;;;;;;2.13;0.90;;;;;21.10;96053.00;;;;2062941;28;20233;-57
2023/11/05 04:17:38;;;;;;;2.13;1.00;;;;;21.10;96056.00;;;;2053718;28;20306;-57
2023/11/05 04:18:39;;;;;;;2.13;1.10;;;;;21.10;96054.00;;;;2056363;28;20219;-58
2023/11/05 04:19:39;;;;;;;1.93;1.20;;;;;21.10;96047.00;;;;2061065;28;20230;-58
2023/11/05 04:20:39;;;;;;;2.90;0.80;;;;;21.10;96051.00;;;;2057830;28;20228;-59
2023/11/05 04:21:40;;;;;;;2.10;1.00;;;;;20.90;96046.00;;;;2052678;28;20852;-58
2023/11/05 04:22:45;;;;;;;2.03;0.90;;;;;21.10;96055.00;;;;2047769;28;20295;-58
2023/11/05 04:23:45;;;;;;;1.77;1.05;;;;;21.10;96058.00;;;;2068014;28;20221;-58
2023/11/05 04:24:45;;;;;;;2.73;1.10;;;;;21.10;96052.00;;;;2067862;28;20221;-59
2023/11/05 04:25:47;;;;;;;1.60;0.80;;;;;21.10;96057.00;;;;2061442;28;20207;-57
2023/11/05 04:26:47;;;;;;;2.15;1.10;;;;;21.10;96054.00;;;;2069768;28;20222;-57
2023/11/05 04:27:47;;;;;;;1.93;0.93;;;;;20.40;96058.00;;;;2053998;28;20222;-57
2023/11/05 04:28:48;;;;;;;2.67;1.20;;;;;21.10;96060.00;;;;2056799;28;20250;-58
2023/11/05 04:29:48;;;;;;;2.33;1.00;;;;;21.10;96058.00;;;;2061798;28;20219;-58
2023/11/05 04:30:48;;;;;;;2.30;1.17;;;;;21.10;96064.00;;;;2058719;28;20257;-58
2023/11/05 04:31:49;;;;;;;2.37;1.00;;;;;21.10;96059.00;;;;2056215;28;20216;-58
2023/11/05 04:32:49;;;;;;;1.90;0.70;;;;;21.10;96059.00;;;;2042914;28;20921;-57
2023/11/05 04:33:51;;;;;;;1.90;1.10;;;;;21.10;96056.00;;;;2060007;28;20261;-57
2023/11/05 04:34:51;;;;;;;1.67;0.88;;;;;21.10;96066.00;;;;2060419;28;20553;-58
2023/11/05 04:35:51;;;;;;;2.10;0.83;;;;;21.10;96071.00;;;;2063414;28;20241;-57
2023/11/05 04:36:52;;;;;;;2.57;1.00;;;;;21.10;96054.00;;;;2056343;28;20239;-57
2023/11/05 04:37:52;;;;;;;1.70;0.67;;;;;21.10;96057.00;;;;2045672;28;20706;-58
2023/11/05 04:38:52;;;;;;;1.87;0.80;;;;;21.10;96065.00;;;;2055961;28;20763;-58
2023/11/05 04:39:53;;;;;;;1.53;0.80;;;;;21.10;96062.00;;;;2061787;28;20517;-58
2023/11/05 04:40:53;;;;;;;3.10;0.80;;;;;21.10;96064.00;;;;2064157;28;20230;-58
2023/11/05 04:41:53;;;;;;;1.40;0.73;;;;;21.10;96061.00;;;;2064008;28;20226;-58
2023/11/05 04:42:54;;;;;;;1.50;0.80;;;;;21.10;96059.00;;;;2050229;28;20234;-59
2023/11/05 04:43:54;;;;;;;2.00;1.20;;;;;21.10;96058.00;;;;2059969;28;20278;-57
2023/11/05 04:44:54;;;;;;;1.87;1.03;;;;;21.10;96054.00;;;;2060371;28;20235;-58
2023/11/05 04:45:55;;;;;;;1.43;0.80;;;;;21.10;96059.00;;;;2060688;28;20878;-59
2023/11/05 04:46:55;;;;;;;2.13;0.93;;;;;21.10;96063.00;;;;2059871;28;20219;-58
2023/11/05 04:47:55;;;;;;;1.30;0.67;;;;;21.10;96063.00;;;;2050767;28;20374;-58
2023/11/05 04:48:56;;;;;;;3.23;0.90;;;;;21.10;96061.00;;;;2063777;28;20223;-58
2023/11/05 04:49:57;;;;;;;1.47;0.70;;;;;21.10;96067.00;;;;2059208;28;20223;-58
2023/11/05 04:50:57;;;;;;;1.30;0.77;;;;;21.10;96065.00;;;;2063597;28;20477;-58
2023/11/05 04:51:58;;;;;;;2.23;0.90;;;;;21.10;96063.00;;;;2059326;28;20265;-58
2023/11/05 04:52:58;;;;;;;1.40;0.60;;;;;21.10;96058.00;;;;2054516;28;20226;-57
2023/11/05 04:53:59;;;;;;;1.80;0.90;;;;;21.10;96061.00;;;;2054935;28;20298;-58
2023/11/05 04:55:00;;;;;;;2.80;0.83;;;;;21.10;96069.00;;;;2058333;28;20207;-58
2023/11/05 04:56:00;;;;;;;1.55;0.77;;;;;21.10;96068.00;;;;2061380;28;20687;-58
2023/11/05 04:57:00;;;;;;;1.53;0.63;;;;;21.10;96061.00;;;;2054121;28;20309;-58
2023/11/05 04:58:01;;;;;;;1.90;0.88;;;;;21.10;96068.00;;;;2047199;28;20227;-58
2023/11/05 04:59:02;;;;;;;2.53;1.10;;;;;21.10;96070.00;;;;2061647;28;20249;-57
2023/11/05 05:00:04;;;;;;;1.63;0.70;;;;;21.10;96064.00;;;;2059461;28;20234;-58
2023/11/05 05:01:04;;;;;;;2.13;0.90;;;;;21.10;96064.00;;;;2061583;28;20227;-59
2023/11/05 05:02:05;;;;;;;1.50;0.80;;;;;21.10;96071.00;;;;2059316;28;20214;-58